Time;durP1;ratioP1;P1;durP2;ratioP2;P2;SDS_P1;SDS_P2;PMS_P1;PMS_P2;Temp;Humidity;BMP_temperature;BMP_pressure;BME280_temperature;BME280_humidity;BME280_pressure;Samples;Min_cycle;Max_cycle;Signal;HPM_P1;HPM_P2
2023/04/27 05:50:41;;;;;;;;;;;;;;;14.74;58.55;96954.81;4209081;27;1444048;-71
2023/04/27 05:52:44;;;;;;;;;;;;;;;14.84;58.65;96960.47;4245240;27;5627;-66
2023/04/27 05:54:47;;;;;;;;;;;;;;;14.91;58.25;96957.75;4243340;27;5607;-70
2023/04/27 05:56:50;;;;;;;;;;;;;;;14.93;58.20;96963.66;4239852;27;5625;-69
2023/04/27 05:58:53;;;;;;;;;;;;;;;14.95;58.01;96966.09;4246775;27;5720;-72
2023/04/27 06:00:56;;;;;;;;;;;;;;;14.96;58.09;96967.78;4247400;27;5592;-70
2023/04/27 06:02:59;;;;;;;;;;;;;;;14.99;58.01;96970.81;4242880;27;5616;-71
2023/04/27 06:05:02;;;;;;;;;;;;;;;15.05;57.80;96967.25;4231456;28;5627;-70
2023/04/27 06:07:10;;;;;;;;;;;;;;;15.11;57.74;96974.41;4239560;27;5620;-73
2023/04/27 06:09:15;;;;;;;;;;;;;;;15.22;57.61;96977.38;4239700;27;5612;-69
2023/04/27 06:11:18;;;;;;;;;;;;;;;15.29;57.57;96983.44;4239535;27;5601;-68
2023/04/27 06:13:21;;;;;;;;;;;;;;;15.34;57.50;96984.44;4231382;28;5604;-71
2023/04/27 06:15:24;;;;;;;;;;;;;;;15.40;57.10;96996.06;4248376;27;5605;-70
2023/04/27 06:17:27;;;;;;;;;;;;;;;15.47;56.97;96988.84;4238717;27;5668;-70
2023/04/27 06:19:33;;;;;;;;;;;;;;;15.52;57.10;96986.34;4240983;27;5593;-69
2023/04/27 06:21:35;;;;;;;;;;;;;;;15.53;56.98;96989.81;4239235;27;5624;-71
2023/04/27 06:23:40;;;;;;;;;;;;;;;15.57;56.82;96993.66;4239539;27;6305;-69
2023/04/27 06:25:43;;;;;;;;;;;;;;;15.62;56.81;96999.97;4236535;27;5628;-70
2023/04/27 06:27:46;;;;;;;;;;;;;;;15.66;56.95;96989.72;4234808;27;5605;-69
2023/04/27 06:29:49;;;;;;;;;;;;;;;15.73;56.53;96990.44;4235273;27;5636;-70
2023/04/27 06:31:52;;;;;;;;;;;;;;;15.78;56.41;96989.81;4232549;27;5708;-71
2023/04/27 06:33:54;;;;;;;;;;;;;;;15.85;56.64;96990.53;4236424;28;5608;-73
2023/04/27 06:35:57;;;;;;;;;;;;;;;15.89;56.47;96991.75;4228156;28;5664;-72
2023/04/27 06:38:00;;;;;;;;;;;;;;;15.97;56.29;96988.78;4222189;28;5608;-71
2023/04/27 06:40:06;;;;;;;;;;;;;;;16.02;56.34;96987.06;4234569;28;5699;-69
2023/04/27 06:42:09;;;;;;;;;;;;;;;16.11;56.21;96984.94;4228171;28;5812;-72
2023/04/27 06:44:12;;;;;;;;;;;;;;;16.15;55.85;96985.28;4220790;28;5784;-71
2023/04/27 06:46:15;;;;;;;;;;;;;;;16.17;55.84;96983.19;4227285;28;5858;-71
2023/04/27 06:48:19;;;;;;;;;;;;;;;16.19;56.01;96987.28;4219798;28;5672;-70
2023/04/27 06:50:22;;;;;;;;;;;;;;;16.21;55.93;96985.22;4227174;28;5605;-72
2023/04/27 06:52:25;;;;;;;;;;;;;;;16.23;55.80;96975.13;4219224;28;5624;-69
2023/04/27 06:54:28;;;;;;;;;;;;;;;16.27;55.54;96975.50;4228801;28;5601;-71
2023/04/27 06:56:34;;;;;;;;;;;;;;;16.29;55.53;96981.41;4227748;28;5608;-72
2023/04/27 06:58:37;;;;;;;;;;;;;;;16.28;55.49;96975.25;4228026;28;5723;-70
2023/04/27 07:00:40;;;;;;;;;;;;;;;16.24;55.34;96971.44;4233811;28;5830;-69
2023/04/27 07:02:44;;;;;;;;;;;;;;;16.23;55.34;96974.31;4231407;28;5621;-69
2023/04/27 07:04:47;;;;;;;;;;;;;;;16.26;55.26;96981.88;4227980;28;5874;-70
2023/04/27 07:06:50;;;;;;;;;;;;;;;16.30;55.26;96986.50;4228211;28;5597;-72
2023/04/27 07:08:53;;;;;;;;;;;;;;;16.32;55.01;96985.50;4232255;28;5793;-69
2023/04/27 07:10:56;;;;;;;;;;;;;;;16.30;55.00;96981.19;4227266;28;5711;-70
2023/04/27 07:13:02;;;;;;;;;;;;;;;16.30;54.99;96989.19;4224890;28;5664;-69
2023/04/27 07:15:07;;;;;;;;;;;;;;;16.33;55.01;96992.47;4229772;28;5715;-70
2023/04/27 07:17:10;;;;;;;;;;;;;;;16.30;54.74;96986.50;4227672;28;5719;-70
2023/04/27 07:19:12;;;;;;;;;;;;;;;16.24;54.89;96992.75;4227529;28;5702;-70
2023/04/27 07:21:16;;;;;;;;;;;;;;;16.23;54.76;96990.31;4218960;28;5604;-69
2023/04/27 07:23:19;;;;;;;;;;;;;;;16.26;54.83;96988.00;4227144;28;5689;-68
2023/04/27 07:25:22;;;;;;;;;;;;;;;16.32;54.54;96988.16;4227213;28;6342;-69
2023/04/27 07:27:27;;;;;;;;;;;;;;;16.30;54.39;96986.50;4228461;28;6298;-69
2023/04/27 07:29:32;;;;;;;;;;;;;;;16.24;54.44;96987.44;4234763;28;5683;-69
2023/04/27 07:31:36;;;;;;;;;;;;;;;16.24;54.56;96975.94;4203169;28;6232;-69
2023/04/27 07:33:39;;;;;;;;;;;;;;;16.25;54.56;96973.06;4236488;28;5585;-69
2023/04/27 07:35:41;;;;;;;;;;;;;;;16.26;54.27;96976.53;4227689;28;5593;-69
2023/04/27 07:37:44;;;;;;;;;;;;;;;16.24;54.07;96965.28;4227532;28;5796;-69
2023/04/27 07:39:49;;;;;;;;;;;;;;;16.20;54.16;96970.25;4227299;28;5604;-69
2023/04/27 07:41:52;;;;;;;;;;;;;;;16.17;54.21;96965.34;4223842;28;5718;-72
2023/04/27 07:43:56;;;;;;;;;;;;;;;16.18;53.97;96960.81;4231838;28;5889;-72
2023/04/27 07:46:01;;;;;;;;;;;;;;;16.17;54.05;96960.00;4227456;28;5684;-69
2023/04/27 07:48:04;;;;;;;;;;;;;;;16.17;53.85;96965.34;4220814;28;5863;-68
2023/04/27 07:50:08;;;;;;;;;;;;;;;16.18;53.88;96960.81;4233400;28;5618;-68
2023/04/27 07:52:11;;;;;;;;;;;;;;;16.18;53.66;96961.63;4226621;28;5620;-68
2023/04/27 07:54:14;;;;;;;;;;;;;;;16.21;53.59;96971.88;4201239;28;5840;-68
2023/04/27 07:56:17;;;;;;;;;;;;;;;16.26;53.44;96966.66;4235059;28;5605;-68
2023/04/27 07:58:20;;;;;;;;;;;;;;;16.30;53.37;96967.03;4226906;28;5660;-68
2023/04/27 08:00:24;;;;;;;;;;;;;;;16.32;53.30;96961.50;4235035;28;5621;-68
2023/04/27 08:02:30;;;;;;;;;;;;;;;16.33;53.28;96963.13;4218307;28;5612;-68
2023/04/27 08:04:38;;;;;;;;;;;;;;;16.34;53.08;96967.41;4226773;28;5698;-67
2023/04/27 08:06:42;;;;;;;;;;;;;;;16.35;53.00;96969.03;4229306;28;5609;-69
2023/04/27 08:08:45;;;;;;;;;;;;;;;16.32;53.02;96970.31;4235238;28;5597;-68
2023/04/27 08:10:48;;;;;;;;;;;;;;;16.30;53.05;96967.03;4231222;28;6720;-68
2023/04/27 08:12:51;;;;;;;;;;;;;;;16.27;52.91;96972.81;4222344;28;5672;-67
2023/04/27 08:14:54;;;;;;;;;;;;;;;16.27;52.77;96964.81;4226576;28;5597;-68
2023/04/27 08:16:57;;;;;;;;;;;;;;;16.24;52.83;96968.75;4226245;28;5079;-69
2023/04/27 08:19:02;;;;;;;;;;;;;;;16.24;52.89;96971.44;4220995;28;5663;-69
2023/04/27 08:21:05;;;;;;;;;;;;;;;16.25;52.67;96973.06;4232529;28;5597;-69
2023/04/27 08:23:08;;;;;;;;;;;;;;;16.26;52.64;96957.84;4227945;28;5623;-67
2023/04/27 08:25:11;;;;;;;;;;;;;;;16.28;52.59;96956.59;4225111;28;5849;-69
2023/04/27 08:27:14;;;;;;;;;;;;;;;16.30;52.36;96951.84;4218766;28;5600;-68
2023/04/27 08:29:17;;;;;;;;;;;;;;;16.33;52.27;96953.25;4234368;28;6282;-68
2023/04/27 08:31:29;;;;;;;;;;;;;;;16.36;52.15;96952.81;4218116;28;5865;-68
2023/04/27 08:33:32;;;;;;;;;;;;;;;16.40;52.16;96958.50;4226067;28;7695;-69
2023/04/27 08:35:37;;;;;;;;;;;;;;;16.41;52.14;96949.44;4226140;28;5609;-69
2023/04/27 08:37:39;;;;;;;;;;;;;;;16.44;51.93;96951.69;4229037;28;5692;-69
2023/04/27 08:39:44;;;;;;;;;;;;;;;16.47;51.92;96956.56;4231456;28;5722;-69
2023/04/27 08:41:47;;;;;;;;;;;;;;;16.51;51.88;96949.72;4226009;28;5623;-70
2023/04/27 08:43:52;;;;;;;;;;;;;;;16.53;51.68;96952.97;4225971;28;5604;-69
2023/04/27 08:45:55;;;;;;;;;;;;;;;16.51;51.60;96953.19;4231126;28;5671;-70
2023/04/27 08:47:58;;;;;;;;;;;;;;;16.54;51.50;96954.63;4234045;28;5770;-69
2023/04/27 08:50:02;;;;;;;;;;;;;;;16.59;51.35;96946.75;4219819;28;5692;-69
2023/04/27 08:52:11;;;;;;;;;;;;;;;16.64;51.14;96954.88;4231712;28;5751;-69
2023/04/27 08:54:14;;;;;;;;;;;;;;;16.69;51.37;96957.72;4218493;28;6548;-69
2023/04/27 08:56:17;;;;;;;;;;;;;;;16.74;50.92;96955.16;4217437;28;5612;-69
2023/04/27 08:58:20;;;;;;;;;;;;;;;16.80;50.57;96954.25;4225787;28;5628;-69
2023/04/27 09:00:25;;;;;;;;;;;;;;;16.83;50.75;96945.78;4225711;28;6565;-69
2023/04/27 09:02:29;;;;;;;;;;;;;;;16.86;50.62;96949.84;4225891;28;5593;-69
2023/04/27 09:04:38;;;;;;;;;;;;;;;16.87;50.52;96952.31;4200978;28;5765;-69
2023/04/27 09:06:41;;;;;;;;;;;;;;;16.88;50.45;96951.28;4231487;28;6288;-69
2023/04/27 09:08:47;;;;;;;;;;;;;;;16.87;50.40;96944.31;4217454;28;5631;-70
2023/04/27 09:10:51;;;;;;;;;;;;;;;16.87;50.30;96943.47;4230075;28;6302;-70
2023/04/27 09:12:56;;;;;;;;;;;;;;;16.87;50.05;96943.47;4224955;28;5905;-69
2023/04/27 09:15:02;;;;;;;;;;;;;;;16.90;49.99;96947.56;4228898;28;5609;-70
2023/04/27 09:17:05;;;;;;;;;;;;;;;16.88;49.78;96945.94;4225630;28;5616;-70
2023/04/27 09:19:08;;;;;;;;;;;;;;;16.87;49.81;96949.66;4232414;28;5613;-70
2023/04/27 09:21:11;;;;;;;;;;;;;;;16.87;49.55;96946.13;4225443;28;5083;-70
2023/04/27 09:23:26;;;;;;;;;;;;;;;16.90;49.73;96947.56;4225275;28;5610;-71
2023/04/27 09:25:32;;;;;;;;;;;;;;;16.93;49.56;96947.09;4225602;28;5790;-71
2023/04/27 09:27:38;;;;;;;;;;;;;;;16.94;49.32;96948.72;4231956;28;5593;-71
2023/04/27 09:29:41;;;;;;;;;;;;;;;16.95;49.20;96945.00;4228677;28;5617;-70
2023/04/27 09:31:44;;;;;;;;;;;;;;;16.91;49.12;96938.50;4225334;28;5687;-71
2023/04/27 09:33:55;;;;;;;;;;;;;;;16.93;48.88;96949.75;4225344;28;5629;-70
2023/04/27 09:35:59;;;;;;;;;;;;;;;16.92;48.94;96945.47;4220423;28;5629;-70
2023/04/27 09:38:03;;;;;;;;;;;;;;;16.94;48.87;96933.50;4225240;28;5837;-70
2023/04/27 09:40:08;;;;;;;;;;;;;;;16.99;48.55;96924.78;4224783;28;5738;-70
2023/04/27 09:42:12;;;;;;;;;;;;;;;17.02;48.50;96930.50;4217388;28;5655;-69
2023/04/27 09:44:16;;;;;;;;;;;;;;;17.06;48.31;96926.31;4217291;28;5615;-70
2023/04/27 09:46:20;;;;;;;;;;;;;;;17.09;48.18;96925.03;4225353;28;5859;-69
2023/04/27 09:48:25;;;;;;;;;;;;;;;17.11;47.98;96923.78;4217506;28;6507;-69
2023/04/27 09:50:28;;;;;;;;;;;;;;;17.15;47.95;96930.28;4224777;28;5743;-69
2023/04/27 09:52:32;;;;;;;;;;;;;;;17.16;48.09;96941.78;4223971;28;5608;-69
2023/04/27 09:54:36;;;;;;;;;;;;;;;17.17;48.07;96938.06;4219297;28;5084;-69
2023/04/27 09:56:52;;;;;;;;;;;;;;;17.18;47.87;96935.16;4234316;28;5848;-69
2023/04/27 09:59:16;;;;;;;;;;;;;;;17.24;47.64;96938.78;4225336;28;5608;-69
2023/04/27 10:01:27;;;;;;;;;;;;;;;17.26;47.40;96923.31;4217133;28;5743;-69
2023/04/27 10:03:33;;;;;;;;;;;;;;;17.29;47.61;96914.84;4217004;28;5615;-69
2023/04/27 10:05:57;;;;;;;;;;;;;;;17.31;47.49;96918.09;4207283;28;5521;-69
2023/04/27 10:08:00;;;;;;;;;;;;;;;17.33;47.40;96924.03;4218611;28;5628;-69
2023/04/27 10:10:04;;;;;;;;;;;;;;;17.34;47.41;96920.31;4228305;28;5747;-69
2023/04/27 10:12:15;;;;;;;;;;;;;;;17.34;47.32;96914.97;4228277;28;5680;-69
2023/04/27 10:14:21;;;;;;;;;;;;;;;17.34;47.24;96914.97;4228154;28;5594;-70
2023/04/27 10:16:24;;;;;;;;;;;;;;;17.33;47.37;96908.00;4220317;28;5819;-69
2023/04/27 10:18:29;;;;;;;;;;;;;;;17.30;47.27;96907.63;4229437;28;5593;-70
2023/04/27 10:20:34;;;;;;;;;;;;;;;17.27;47.36;96908.91;4236888;28;5637;-69
2023/04/27 10:22:39;;;;;;;;;;;;;;;17.28;47.33;96913.22;4228298;28;6544;-69
2023/04/27 10:24:43;;;;;;;;;;;;;;;17.28;47.21;96907.88;4228456;28;5605;-69
2023/04/27 10:26:47;;;;;;;;;;;;;;;17.31;47.14;96904.72;4228217;28;5604;-69
2023/04/27 10:29:06;;;;;;;;;;;;;;;17.31;47.10;96904.72;4228130;28;5601;-69
2023/04/27 10:31:11;;;;;;;;;;;;;;;17.30;47.14;96908.44;4228200;28;5890;-69
2023/04/27 10:33:17;;;;;;;;;;;;;;;17.30;46.81;96904.97;4236673;28;5601;-69
2023/04/27 10:35:21;;;;;;;;;;;;;;;17.30;46.90;96911.09;4228382;28;5821;-69
2023/04/27 10:37:37;;;;;;;;;;;;;;;17.31;46.93;96911.94;4228029;28;5084;-69
2023/04/27 10:39:42;;;;;;;;;;;;;;;17.28;46.70;96905.19;4225186;28;5699;-69
2023/04/27 10:41:52;;;;;;;;;;;;;;;17.30;46.78;96905.78;4232429;28;5717;-69
2023/04/27 10:43:55;;;;;;;;;;;;;;;17.28;46.81;96899.84;4228128;28;5597;-69
2023/04/27 10:46:07;;;;;;;;;;;;;;;17.27;46.71;96905.44;4236609;28;5601;-71
2023/04/27 10:48:14;;;;;;;;;;;;;;;17.24;46.66;96901.38;4221278;28;5616;-69
2023/04/27 10:50:17;;;;;;;;;;;;;;;17.26;46.49;96901.94;4235352;28;5605;-68
2023/04/27 10:52:20;;;;;;;;;;;;;;;17.24;46.48;96896.03;4227819;28;5628;-68
2023/04/27 10:54:27;;;;;;;;;;;;;;;17.27;46.41;96900.91;4236319;28;5610;-68
2023/04/27 10:56:29;;;;;;;;;;;;;;;17.30;46.32;96889.75;4235244;28;5679;-68
2023/04/27 10:58:33;;;;;;;;;;;;;;;17.29;46.38;96893.47;4227815;28;5729;-69
2023/04/27 11:00:51;;;;;;;;;;;;;;;17.30;46.43;96887.06;4227768;28;5608;-69
2023/04/27 11:02:54;;;;;;;;;;;;;;;17.32;46.30;96892.97;4227720;28;5639;-68
2023/04/27 11:04:59;;;;;;;;;;;;;;;17.35;46.44;96897.06;4232988;28;5629;-69
2023/04/27 11:07:03;;;;;;;;;;;;;;;17.38;46.28;96886.72;4221515;28;5741;-68
2023/04/27 11:09:06;;;;;;;;;;;;;;;17.40;46.15;96889.16;4227533;28;5623;-68
2023/04/27 11:11:14;;;;;;;;;;;;;;;17.41;46.10;96896.94;4227609;28;5713;-69
2023/04/27 11:13:20;;;;;;;;;;;;;;;17.40;46.12;96889.16;4227484;28;5604;-69
2023/04/27 11:15:23;;;;;;;;;;;;;;;17.41;46.05;96894.25;4219539;28;5620;-69
2023/04/27 11:17:29;;;;;;;;;;;;;;;17.44;45.85;96891.16;4226733;28;5631;-69
2023/04/27 11:19:32;;;;;;;;;;;;;;;17.46;46.02;96883.69;4219058;28;5608;-69
2023/04/27 11:21:37;;;;;;;;;;;;;;;17.51;45.81;96890.19;4221147;28;5715;-69
2023/04/27 11:23:41;;;;;;;;;;;;;;;17.53;45.73;96880.88;4227127;28;5961;-69
2023/04/27 11:25:44;;;;;;;;;;;;;;;17.55;45.79;96869.94;4227231;28;5586;-69
2023/04/27 11:27:47;;;;;;;;;;;;;;;17.57;45.74;96871.38;4232144;28;6077;-69
2023/04/27 11:29:50;;;;;;;;;;;;;;;17.58;45.66;96870.31;4231740;28;5593;-69
2023/04/27 11:31:53;;;;;;;;;;;;;;;17.59;45.58;96871.13;4230452;28;6301;-69
2023/04/27 11:33:56;;;;;;;;;;;;;;;17.60;45.68;96870.06;4226677;28;5621;-69
2023/04/27 11:36:00;;;;;;;;;;;;;;;17.64;45.81;96868.53;4218993;28;5799;-69
2023/04/27 11:38:04;;;;;;;;;;;;;;;17.68;45.84;96867.84;4226968;28;6316;-69
2023/04/27 11:40:08;;;;;;;;;;;;;;;17.74;45.47;96874.13;4227203;28;5612;-69
2023/04/27 11:42:18;;;;;;;;;;;;;;;17.81;45.60;96868.66;4227243;28;6289;-69
2023/04/27 11:44:26;;;;;;;;;;;;;;;17.86;45.31;96866.91;4218831;28;5736;-69
2023/04/27 11:46:29;;;;;;;;;;;;;;;17.88;45.38;96863.97;4219749;28;6380;-69
2023/04/27 11:48:32;;;;;;;;;;;;;;;17.91;45.19;96859.00;4233862;28;5601;-69
2023/04/27 11:50:35;;;;;;;;;;;;;;;17.97;45.22;96860.69;4218162;28;6274;-69
2023/04/27 11:52:39;;;;;;;;;;;;;;;18.00;45.19;96868.22;4229415;28;5626;-69
2023/04/27 11:54:52;;;;;;;;;;;;;;;18.04;45.09;96864.06;4232313;28;5710;-69
2023/04/27 11:57:04;;;;;;;;;;;;;;;18.08;45.04;96863.56;4223379;28;5814;-69
2023/04/27 11:59:19;;;;;;;;;;;;;;;18.12;45.11;96865.53;4228825;28;5616;-70
2023/04/27 12:01:23;;;;;;;;;;;;;;;18.18;45.08;96858.41;4227222;28;5684;-70
2023/04/27 12:03:40;;;;;;;;;;;;;;;18.23;45.01;96855.81;4235536;28;5694;-70
2023/04/27 12:05:48;;;;;;;;;;;;;;;18.26;44.83;96856.16;4235353;28;5604;-70
2023/04/27 12:07:52;;;;;;;;;;;;;;;18.33;44.79;96858.69;4235235;28;5609;-69
2023/04/27 12:09:56;;;;;;;;;;;;;;;18.36;44.73;96860.09;4230544;28;6451;-70
2023/04/27 12:12:03;;;;;;;;;;;;;;;18.36;44.72;96850.19;4232852;28;6395;-69
2023/04/27 12:14:06;;;;;;;;;;;;;;;18.37;44.71;96854.47;4220216;28;5604;-70
2023/04/27 12:16:09;;;;;;;;;;;;;;;18.38;44.65;96852.63;4218292;28;5620;-68
2023/04/27 12:18:11;;;;;;;;;;;;;;;18.37;44.58;96854.47;4226596;28;5740;-68
2023/04/27 12:20:14;;;;;;;;;;;;;;;18.40;44.65;96851.31;4218014;28;5627;-68
2023/04/27 12:22:17;;;;;;;;;;;;;;;18.41;44.58;96849.44;4225866;28;5118;-68
2023/04/27 12:24:20;;;;;;;;;;;;;;;18.42;44.43;96857.25;4226435;28;5578;-69
2023/04/27 12:26:25;;;;;;;;;;;;;;;18.44;44.39;96847.09;4226254;28;5593;-70
2023/04/27 12:28:28;;;;;;;;;;;;;;;18.47;44.31;96861.88;4226569;28;5601;-69
2023/04/27 12:30:31;;;;;;;;;;;;;;;18.49;44.31;96859.78;4226061;28;5625;-69
2023/04/27 12:32:34;;;;;;;;;;;;;;;18.54;44.21;96857.97;4219934;28;5616;-68
2023/04/27 12:34:38;;;;;;;;;;;;;;;18.55;44.12;96853.44;4223824;28;5711;-68
2023/04/27 12:36:44;;;;;;;;;;;;;;;18.55;44.14;96854.25;4217902;28;5719;-68
2023/04/27 12:38:47;;;;;;;;;;;;;;;18.57;43.97;96848.66;4221338;28;5606;-69
2023/04/27 12:40:50;;;;;;;;;;;;;;;18.57;44.12;96854.00;4230916;28;5608;-69
2023/04/27 12:42:55;;;;;;;;;;;;;;;18.54;43.95;96855.31;4222349;28;5589;-68
2023/04/27 12:44:58;;;;;;;;;;;;;;;18.52;44.12;96845.91;4226238;28;5910;-69
2023/04/27 12:47:01;;;;;;;;;;;;;;;18.50;43.88;96850.69;4234809;28;5848;-68
2023/04/27 12:49:05;;;;;;;;;;;;;;;18.48;43.94;96853.59;4225715;28;5879;-69
2023/04/27 12:51:08;;;;;;;;;;;;;;;18.47;43.79;96851.19;4225704;28;5598;-69
2023/04/27 12:53:11;;;;;;;;;;;;;;;18.46;43.74;96850.38;4207549;28;5516;-69
2023/04/27 12:55:14;;;;;;;;;;;;;;;18.46;43.84;96850.38;4218507;28;5762;-70
2023/04/27 12:57:33;;;;;;;;;;;;;;;18.47;43.87;96840.47;4227874;28;5696;-69
2023/04/27 12:59:38;;;;;;;;;;;;;;;18.52;43.62;96837.88;4232419;28;5191;-69
2023/04/27 13:01:41;;;;;;;;;;;;;;;18.52;43.48;96848.56;4207565;28;5753;-69
2023/04/27 13:03:47;;;;;;;;;;;;;;;18.52;43.70;96841.34;4225934;28;5684;-69
2023/04/27 13:05:51;;;;;;;;;;;;;;;18.53;43.60;96845.66;4229983;28;5622;-68
2023/04/27 13:07:53;;;;;;;;;;;;;;;18.58;43.54;96837.72;4229590;28;6223;-68
2023/04/27 13:09:56;;;;;;;;;;;;;;;18.61;43.45;96831.88;4225889;28;5076;-67
2023/04/27 13:11:59;;;;;;;;;;;;;;;18.62;43.45;96833.50;4223141;28;5605;-69
2023/04/27 13:14:04;;;;;;;;;;;;;;;18.62;43.22;96830.81;4219819;28;5616;-68
2023/04/27 13:16:08;;;;;;;;;;;;;;;18.66;43.42;96833.84;4217470;28;5923;-68
2023/04/27 13:18:11;;;;;;;;;;;;;;;18.68;43.19;96831.72;4232202;28;5095;-70
2023/04/27 13:20:15;;;;;;;;;;;;;;;18.72;43.24;96826.72;4226342;28;5740;-68
2023/04/27 13:22:19;;;;;;;;;;;;;;;18.77;42.95;96826.78;4233586;28;5653;-69
2023/04/27 13:24:23;;;;;;;;;;;;;;;18.80;42.96;96835.16;4217779;28;5748;-69
2023/04/27 13:26:26;;;;;;;;;;;;;;;18.84;42.91;96835.47;4234330;28;5708;-69
2023/04/27 13:28:31;;;;;;;;;;;;;;;18.87;42.69;96829.63;4232779;28;5582;-69
2023/04/27 13:30:34;;;;;;;;;;;;;;;18.92;42.65;96823.56;4225709;28;5601;-70
2023/04/27 13:32:38;;;;;;;;;;;;;;;18.97;42.60;96826.28;4225737;28;5609;-70
2023/04/27 13:34:41;;;;;;;;;;;;;;;18.99;42.90;96827.66;4225398;28;5738;-70
2023/04/27 13:36:44;;;;;;;;;;;;;;;19.01;42.40;96825.53;4225479;28;5803;-70
2023/04/27 13:38:50;;;;;;;;;;;;;;;19.06;42.52;96814.91;4229826;28;5589;-69
2023/04/27 13:40:54;;;;;;;;;;;;;;;19.12;42.19;96824.63;4225546;28;5689;-68
2023/04/27 13:42:57;;;;;;;;;;;;;;;19.23;42.05;96816.75;4230681;28;5616;-69
2023/04/27 13:45:01;;;;;;;;;;;;;;;19.25;42.19;96823.47;4228888;28;5604;-69
2023/04/27 13:47:04;;;;;;;;;;;;;;;19.24;41.96;96818.34;4226385;28;5593;-69
2023/04/27 13:49:09;;;;;;;;;;;;;;;19.22;41.96;96821.28;4228671;28;5597;-68
2023/04/27 13:51:13;;;;;;;;;;;;;;;19.22;41.95;96815.13;4229844;28;5616;-70
2023/04/27 13:53:16;;;;;;;;;;;;;;;19.24;41.56;96811.13;4228684;28;5734;-70
2023/04/27 13:55:18;;;;;;;;;;;;;;;19.24;41.59;96808.44;4229095;28;5912;-68
2023/04/27 13:57:21;;;;;;;;;;;;;;;19.26;41.53;96816.25;4220467;28;5631;-70
2023/04/27 13:59:24;;;;;;;;;;;;;;;19.24;41.21;96813.00;4228834;28;5613;-69
2023/04/27 14:01:28;;;;;;;;;;;;;;;19.24;41.13;96813.00;4210606;28;5525;-68
2023/04/27 14:03:32;;;;;;;;;;;;;;;19.24;40.88;96813.00;4228638;28;5614;-71
2023/04/27 14:05:37;;;;;;;;;;;;;;;19.27;40.98;96812.53;4230725;28;5601;-70
2023/04/27 14:07:39;;;;;;;;;;;;;;;19.27;40.76;96804.47;4237027;28;5866;-70
2023/04/27 14:09:43;;;;;;;;;;;;;;;19.26;40.43;96803.69;4228636;28;5589;-70
2023/04/27 14:11:46;;;;;;;;;;;;;;;19.29;40.51;96810.41;4225008;28;5616;-70
2023/04/27 14:13:59;;;;;;;;;;;;;;;19.27;40.18;96802.63;4228696;28;5608;-70
2023/04/27 14:16:03;;;;;;;;;;;;;;;19.27;39.97;96812.53;4234164;28;5601;-70
2023/04/27 14:18:08;;;;;;;;;;;;;;;19.27;40.00;96812.53;4228458;28;5585;-70
2023/04/27 14:20:11;;;;;;;;;;;;;;;19.25;39.78;96799.34;4221319;28;5616;-69
2023/04/27 14:22:15;;;;;;;;;;;;;;;19.23;39.66;96801.47;4228620;28;5633;-70
2023/04/27 14:24:19;;;;;;;;;;;;;;;19.24;39.67;96794.25;4231972;28;5656;-70
2023/04/27 14:26:22;;;;;;;;;;;;;;;19.35;39.37;96801.34;4232989;28;5593;-70
2023/04/27 14:28:25;;;;;;;;;;;;;;;19.44;39.34;96794.50;4233937;28;5742;-70
2023/04/27 14:30:32;;;;;;;;;;;;;;;19.48;38.92;96787.59;4231479;28;5589;-70
2023/04/27 14:32:36;;;;;;;;;;;;;;;19.48;39.02;96798.31;4230789;28;5586;-70
2023/04/27 14:34:39;;;;;;;;;;;;;;;19.51;38.72;96791.66;4224897;28;5844;-69
2023/04/27 14:36:43;;;;;;;;;;;;;;;19.51;38.92;96802.38;4232615;28;5695;-71
2023/04/27 14:38:47;;;;;;;;;;;;;;;19.54;38.41;96802.69;4225501;28;6622;-69
2023/04/27 14:40:50;;;;;;;;;;;;;;;19.57;38.51;96796.03;4232140;28;5665;-69
2023/04/27 14:42:53;;;;;;;;;;;;;;;19.56;38.33;96797.91;4231964;28;6428;-69
2023/04/27 14:44:56;;;;;;;;;;;;;;;19.59;38.11;96800.06;4227623;27;5111;-68
2023/04/27 14:46:59;;;;;;;;;;;;;;;19.61;38.16;96791.81;4228279;27;5788;-69
2023/04/27 14:49:02;;;;;;;;;;;;;;;19.65;38.08;96788.38;4225566;28;6407;-69
2023/04/27 14:51:05;;;;;;;;;;;;;;;19.68;38.07;96798.56;4229490;28;5593;-70
2023/04/27 14:53:08;;;;;;;;;;;;;;;19.72;37.93;96802.41;4218968;28;5802;-69
2023/04/27 14:55:14;;;;;;;;;;;;;;;19.75;37.86;96793.84;4235370;27;5690;-69
2023/04/27 14:57:17;;;;;;;;;;;;;;;19.80;37.82;96798.44;4230402;28;5845;-69
2023/04/27 14:59:21;;;;;;;;;;;;;;;19.86;37.76;96788.59;4233815;28;5642;-69
2023/04/27 15:01:23;;;;;;;;;;;;;;;19.86;37.63;96794.78;4220646;27;5692;-69
2023/04/27 15:03:27;;;;;;;;;;;;;;;19.88;37.70;96792.63;4231320;28;6729;-69
2023/04/27 15:05:30;;;;;;;;;;;;;;;19.90;37.45;96787.00;4230325;28;6310;-69
2023/04/27 15:07:33;;;;;;;;;;;;;;;19.90;37.30;96789.69;4222381;28;5820;-69
2023/04/27 15:09:36;;;;;;;;;;;;;;;19.85;37.32;96795.84;4228706;28;6367;-69
2023/04/27 15:11:40;;;;;;;;;;;;;;;19.88;37.55;96791.84;4229517;28;5680;-70
2023/04/27 15:13:43;;;;;;;;;;;;;;;19.88;37.73;96794.50;4225671;28;5687;-69
2023/04/27 15:15:46;;;;;;;;;;;;;;;19.87;37.71;96795.56;4228563;27;5717;-70
2023/04/27 15:17:49;;;;;;;;;;;;;;;19.89;37.63;96801.50;4227286;28;5608;-69
2023/04/27 15:19:52;;;;;;;;;;;;;;;19.85;37.86;96798.50;4225837;28;5617;-69
2023/04/27 15:21:55;;;;;;;;;;;;;;;19.83;38.48;96800.66;4225625;28;5821;-69
2023/04/27 15:23:58;;;;;;;;;;;;;;;19.77;38.37;96801.63;4221934;28;5707;-70
2023/04/27 15:26:04;;;;;;;;;;;;;;;19.73;38.74;96800.53;4232818;28;5740;-70
2023/04/27 15:28:09;;;;;;;;;;;;;;;19.67;38.76;96796.97;4226746;28;5660;-70
2023/04/27 15:30:15;;;;;;;;;;;;;;;19.63;39.09;96795.84;4233136;28;5813;-69
2023/04/27 15:32:18;;;;;;;;;;;;;;;19.57;38.85;96796.84;4224842;28;5518;-69
2023/04/27 15:34:21;;;;;;;;;;;;;;;19.56;38.85;96789.03;4228079;28;5095;-69
2023/04/27 15:36:25;;;;;;;;;;;;;;;19.52;39.03;96787.91;4226439;28;6687;-69
2023/04/27 15:38:28;;;;;;;;;;;;;;;19.52;39.06;96787.91;4230595;28;5680;-69
2023/04/27 15:40:34;;;;;;;;;;;;;;;19.50;38.90;96790.84;4229055;28;5605;-70
2023/04/27 15:42:37;;;;;;;;;;;;;;;19.50;38.98;96796.19;4226148;28;5808;-69
2023/04/27 15:44:41;;;;;;;;;;;;;;;19.50;38.98;96788.16;4228806;28;7687;-69
2023/04/27 15:46:45;;;;;;;;;;;;;;;19.47;38.87;96780.59;4220173;28;5617;-69
2023/04/27 15:48:48;;;;;;;;;;;;;;;19.44;38.89;96781.09;4225598;28;6410;-69
2023/04/27 15:50:51;;;;;;;;;;;;;;;19.42;38.89;96778.69;4222663;28;5857;-71
2023/04/27 15:52:54;;;;;;;;;;;;;;;19.39;38.61;96764.97;4227419;28;5742;-66
2023/04/27 15:54:57;;;;;;;;;;;;;;;19.35;38.85;96766.50;4224094;28;5622;-68
2023/04/27 15:57:02;;;;;;;;;;;;;;;19.35;38.55;96766.50;4225749;28;5692;-67
2023/04/27 15:59:06;;;;;;;;;;;;;;;19.35;38.47;96764.63;4221431;28;5816;-67
2023/04/27 16:01:11;;;;;;;;;;;;;;;19.36;38.75;96760.09;4223432;28;5742;-66
2023/04/27 16:03:13;;;;;;;;;;;;;;;19.35;38.51;96761.16;4223619;28;5629;-67
2023/04/27 16:05:24;;;;;;;;;;;;;;;19.34;38.41;96760.34;4222181;28;5180;-67
2023/04/27 16:07:27;;;;;;;;;;;;;;;19.35;38.45;96764.63;4228667;28;5714;-67
2023/04/27 16:09:30;;;;;;;;;;;;;;;19.35;38.53;96755.78;4224936;28;5691;-69
2023/04/27 16:11:33;;;;;;;;;;;;;;;19.35;38.57;96758.47;4230410;28;6622;-68
2023/04/27 16:13:36;;;;;;;;;;;;;;;19.37;38.50;96759.06;4223448;28;5604;-69
2023/04/27 16:15:39;;;;;;;;;;;;;;;19.36;38.41;96752.03;4225587;28;5660;-72
2023/04/27 16:17:46;;;;;;;;;;;;;;;19.36;38.39;96746.69;4229037;28;5716;-71
2023/04/27 16:19:49;;;;;;;;;;;;;;;19.40;38.43;96750.50;4228887;27;5708;-72
2023/04/27 16:21:52;;;;;;;;;;;;;;;19.46;38.21;96749.47;4226181;28;5711;-69
2023/04/27 16:23:55;;;;;;;;;;;;;;;19.46;38.38;96752.16;4230991;28;5114;-69
2023/04/27 16:25:58;;;;;;;;;;;;;;;19.43;38.45;96750.00;4227234;28;5623;-69
2023/04/27 16:28:01;;;;;;;;;;;;;;;19.42;38.47;96740.34;4227326;28;6518;-68
2023/04/27 16:30:06;;;;;;;;;;;;;;;19.41;38.28;96738.72;4224093;28;5808;-69
2023/04/27 16:32:09;;;;;;;;;;;;;;;19.39;38.27;96740.84;4223312;28;5703;-69
2023/04/27 16:34:14;;;;;;;;;;;;;;;19.38;38.29;96734.66;4221935;28;5725;-68
2023/04/27 16:36:17;;;;;;;;;;;;;;;19.45;38.25;96731.78;4226648;28;5812;-68
2023/04/27 16:38:20;;;;;;;;;;;;;;;19.47;37.93;96726.97;4208570;28;5098;-68
2023/04/27 16:40:23;;;;;;;;;;;;;;;19.45;38.27;96739.81;4231420;28;5604;-68
2023/04/27 16:42:27;;;;;;;;;;;;;;;19.45;38.08;96737.16;4224637;28;5608;-68
2023/04/27 16:44:32;;;;;;;;;;;;;;;19.44;38.40;96739.00;4203126;28;5745;-68
2023/04/27 16:46:35;;;;;;;;;;;;;;;19.41;38.28;96741.41;4222820;28;5759;-68